sensor_id;sensor_type;location;lat;lon;timestamp;P1;durP1;ratioP1;P2;durP2;ratioP2
54705;SDS011;40603;48.774;8.916;2023-07-22T00:02:20;2.10;;;1.90;;
54705;SDS011;40603;48.774;8.916;2023-07-22T00:04:47;3.28;;;2.17;;
54705;SDS011;40603;48.774;8.916;2023-07-22T00:07:13;6.60;;;2.25;;
54705;SDS011;40603;48.774;8.916;2023-07-22T00:09:38;3.95;;;2.00;;
54705;SDS011;40603;48.774;8.916;2023-07-22T00:12:04;4.88;;;2.13;;
54705;SDS011;40603;48.774;8.916;2023-07-22T00:14:30;7.45;;;2.00;;
54705;SDS011;40603;48.774;8.916;2023-07-22T00:16:56;2.40;;;1.92;;
54705;SDS011;40603;48.774;8.916;2023-07-22T00:19:21;4.07;;;1.90;;
54705;SDS011;40603;48.774;8.916;2023-07-22T00:21:46;3.60;;;2.08;;
54705;SDS011;40603;48.774;8.916;2023-07-22T00:24:12;8.57;;;2.55;;
54705;SDS011;40603;48.774;8.916;2023-07-22T00:26:38;5.63;;;2.28;;
54705;SDS011;40603;48.774;8.916;2023-07-22T00:29:03;5.85;;;1.45;;
54705;SDS011;40603;48.774;8.916;2023-07-22T00:31:29;2.42;;;2.00;;
54705;SDS011;40603;48.774;8.916;2023-07-22T00:33:55;4.85;;;1.65;;
54705;SDS011;40603;48.774;8.916;2023-07-22T00:36:20;8.88;;;2.15;;
54705;SDS011;40603;48.774;8.916;2023-07-22T00:38:45;3.15;;;1.95;;
54705;SDS011;40603;48.774;8.916;2023-07-22T00:41:11;16.67;;;3.58;;
54705;SDS011;40603;48.774;8.916;2023-07-22T00:43:36;8.05;;;2.38;;
54705;SDS011;40603;48.774;8.916;2023-07-22T00:46:01;3.92;;;2.22;;
54705;SDS011;40603;48.774;8.916;2023-07-22T00:48:27;4.75;;;2.15;;
54705;SDS011;40603;48.774;8.916;2023-07-22T00:50:52;5.30;;;2.88;;
54705;SDS011;40603;48.774;8.916;2023-07-22T00:53:18;7.00;;;2.55;;
54705;SDS011;40603;48.774;8.916;2023-07-22T00:55:43;10.27;;;2.53;;
54705;SDS011;40603;48.774;8.916;2023-07-22T00:58:10;3.83;;;2.17;;
54705;SDS011;40603;48.774;8.916;2023-07-22T01:00:35;3.17;;;2.30;;
54705;SDS011;40603;48.774;8.916;2023-07-22T01:03:01;5.90;;;2.50;;
54705;SDS011;40603;48.774;8.916;2023-07-22T01:05:26;6.60;;;2.72;;
54705;SDS011;40603;48.774;8.916;2023-07-22T01:07:51;5.30;;;2.42;;
54705;SDS011;40603;48.774;8.916;2023-07-22T01:10:17;6.68;;;2.47;;
54705;SDS011;40603;48.774;8.916;2023-07-22T01:12:43;3.25;;;2.53;;
54705;SDS011;40603;48.774;8.916;2023-07-22T01:15:09;8.07;;;2.20;;
54705;SDS011;40603;48.774;8.916;2023-07-22T01:17:36;5.25;;;2.67;;
54705;SDS011;40603;48.774;8.916;2023-07-22T01:20:02;6.50;;;2.38;;
54705;SDS011;40603;48.774;8.916;2023-07-22T01:22:28;3.92;;;2.30;;
54705;SDS011;40603;48.774;8.916;2023-07-22T01:24:54;3.30;;;2.50;;
54705;SDS011;40603;48.774;8.916;2023-07-22T01:27:19;9.88;;;2.13;;
54705;SDS011;40603;48.774;8.916;2023-07-22T01:29:45;3.53;;;2.58;;
54705;SDS011;40603;48.774;8.916;2023-07-22T01:32:10;5.05;;;2.22;;
54705;SDS011;40603;48.774;8.916;2023-07-22T01:34:35;4.05;;;2.28;;
54705;SDS011;40603;48.774;8.916;2023-07-22T01:37:01;4.43;;;2.38;;
54705;SDS011;40603;48.774;8.916;2023-07-22T01:39:26;4.85;;;2.42;;
54705;SDS011;40603;48.774;8.916;2023-07-22T01:41:52;4.85;;;2.47;;
54705;SDS011;40603;48.774;8.916;2023-07-22T01:44:17;3.70;;;2.60;;
54705;SDS011;40603;48.774;8.916;2023-07-22T01:46:43;4.30;;;2.05;;
54705;SDS011;40603;48.774;8.916;2023-07-22T01:49:10;6.05;;;2.30;;
54705;SDS011;40603;48.774;8.916;2023-07-22T01:51:37;5.53;;;2.25;;
54705;SDS011;40603;48.774;8.916;2023-07-22T01:54:03;9.65;;;2.35;;
54705;SDS011;40603;48.774;8.916;2023-07-22T01:56:29;4.82;;;2.00;;
54705;SDS011;40603;48.774;8.916;2023-07-22T01:58:55;3.33;;;1.95;;
54705;SDS011;40603;48.774;8.916;2023-07-22T02:01:20;4.20;;;2.33;;
54705;SDS011;40603;48.774;8.916;2023-07-22T02:03:45;2.53;;;1.83;;
54705;SDS011;40603;48.774;8.916;2023-07-22T02:06:11;2.55;;;1.95;;
54705;SDS011;40603;48.774;8.916;2023-07-22T02:08:37;3.67;;;2.40;;
54705;SDS011;40603;48.774;8.916;2023-07-22T02:11:06;3.60;;;2.60;;
54705;SDS011;40603;48.774;8.916;2023-07-22T02:13:34;3.50;;;2.40;;
54705;SDS011;40603;48.774;8.916;2023-07-22T02:15:59;5.22;;;1.90;;
54705;SDS011;40603;48.774;8.916;2023-07-22T02:18:25;4.45;;;2.05;;
54705;SDS011;40603;48.774;8.916;2023-07-22T02:20:50;3.85;;;2.15;;
54705;SDS011;40603;48.774;8.916;2023-07-22T02:23:16;4.03;;;2.50;;
54705;SDS011;40603;48.774;8.916;2023-07-22T02:25:41;7.80;;;2.80;;
54705;SDS011;40603;48.774;8.916;2023-07-22T02:28:07;5.30;;;2.50;;
54705;SDS011;40603;48.774;8.916;2023-07-22T02:30:35;5.50;;;3.00;;
54705;SDS011;40603;48.774;8.916;2023-07-22T02:33:02;4.88;;;2.83;;
54705;SDS011;40603;48.774;8.916;2023-07-22T02:35:27;5.18;;;2.50;;
54705;SDS011;40603;48.774;8.916;2023-07-22T02:37:53;4.10;;;2.42;;
54705;SDS011;40603;48.774;8.916;2023-07-22T02:40:18;5.05;;;2.35;;
54705;SDS011;40603;48.774;8.916;2023-07-22T02:42:43;3.75;;;2.33;;
54705;SDS011;40603;48.774;8.916;2023-07-22T02:45:09;3.83;;;2.38;;
54705;SDS011;40603;48.774;8.916;2023-07-22T02:47:34;3.47;;;2.50;;
54705;SDS011;40603;48.774;8.916;2023-07-22T02:50:00;4.22;;;2.47;;
54705;SDS011;40603;48.774;8.916;2023-07-22T02:52:26;3.70;;;2.60;;
54705;SDS011;40603;48.774;8.916;2023-07-22T02:57:36;5.50;;;2.72;;
54705;SDS011;40603;48.774;8.916;2023-07-22T03:00:02;7.18;;;2.80;;
54705;SDS011;40603;48.774;8.916;2023-07-22T03:02:32;4.55;;;3.03;;
54705;SDS011;40603;48.774;8.916;2023-07-22T03:04:57;5.82;;;2.53;;
54705;SDS011;40603;48.774;8.916;2023-07-22T03:07:23;3.53;;;2.20;;
54705;SDS011;40603;48.774;8.916;2023-07-22T03:09:48;3.58;;;2.30;;
54705;SDS011;40603;48.774;8.916;2023-07-22T03:12:13;3.78;;;1.98;;
54705;SDS011;40603;48.774;8.916;2023-07-22T03:14:38;3.58;;;2.22;;
54705;SDS011;40603;48.774;8.916;2023-07-22T03:17:04;3.40;;;2.20;;
54705;SDS011;40603;48.774;8.916;2023-07-22T03:19:29;3.50;;;1.90;;
54705;SDS011;40603;48.774;8.916;2023-07-22T03:21:55;3.80;;;2.38;;
54705;SDS011;40603;48.774;8.916;2023-07-22T03:24:20;3.13;;;2.30;;
54705;SDS011;40603;48.774;8.916;2023-07-22T03:26:45;5.00;;;2.10;;
54705;SDS011;40603;48.774;8.916;2023-07-22T03:29:11;4.13;;;2.60;;
54705;SDS011;40603;48.774;8.916;2023-07-22T03:31:36;3.55;;;2.25;;
54705;SDS011;40603;48.774;8.916;2023-07-22T03:34:01;4.22;;;2.70;;
54705;SDS011;40603;48.774;8.916;2023-07-22T03:36:27;5.32;;;2.67;;
54705;SDS011;40603;48.774;8.916;2023-07-22T03:38:52;7.00;;;2.90;;
54705;SDS011;40603;48.774;8.916;2023-07-22T03:41:17;4.30;;;2.28;;
54705;SDS011;40603;48.774;8.916;2023-07-22T03:43:43;8.98;;;2.15;;
54705;SDS011;40603;48.774;8.916;2023-07-22T03:46:08;4.68;;;2.50;;
54705;SDS011;40603;48.774;8.916;2023-07-22T03:48:33;2.90;;;2.13;;
54705;SDS011;40603;48.774;8.916;2023-07-22T03:50:59;4.65;;;2.40;;
54705;SDS011;40603;48.774;8.916;2023-07-22T03:53:24;5.65;;;3.85;;
54705;SDS011;40603;48.774;8.916;2023-07-22T03:55:50;2.88;;;2.30;;
54705;SDS011;40603;48.774;8.916;2023-07-22T03:58:15;3.13;;;2.35;;
54705;SDS011;40603;48.774;8.916;2023-07-22T04:00:41;6.22;;;2.35;;
54705;SDS011;40603;48.774;8.916;2023-07-22T04:03:06;3.50;;;2.25;;
54705;SDS011;40603;48.774;8.916;2023-07-22T04:05:31;5.90;;;2.50;;
54705;SDS011;40603;48.774;8.916;2023-07-22T04:07:57;3.03;;;2.30;;
54705;SDS011;40603;48.774;8.916;2023-07-22T04:10:22;5.85;;;2.40;;
54705;SDS011;40603;48.774;8.916;2023-07-22T04:12:47;6.45;;;2.33;;
54705;SDS011;40603;48.774;8.916;2023-07-22T04:15:13;4.57;;;2.30;;
54705;SDS011;40603;48.774;8.916;2023-07-22T04:17:40;4.63;;;2.42;;
54705;SDS011;40603;48.774;8.916;2023-07-22T04:20:05;4.70;;;2.30;;
54705;SDS011;40603;48.774;8.916;2023-07-22T04:22:33;4.00;;;2.40;;
54705;SDS011;40603;48.774;8.916;2023-07-22T04:24:58;3.38;;;2.20;;
54705;SDS011;40603;48.774;8.916;2023-07-22T04:27:24;4.32;;;2.40;;
54705;SDS011;40603;48.774;8.916;2023-07-22T04:29:49;9.48;;;3.00;;
54705;SDS011;40603;48.774;8.916;2023-07-22T04:32:14;3.28;;;2.30;;
54705;SDS011;40603;48.774;8.916;2023-07-22T04:34:40;4.35;;;2.22;;
54705;SDS011;40603;48.774;8.916;2023-07-22T04:37:05;5.35;;;2.58;;
54705;SDS011;40603;48.774;8.916;2023-07-22T04:39:31;3.22;;;2.70;;
54705;SDS011;40603;48.774;8.916;2023-07-22T04:41:56;5.53;;;2.55;;
54705;SDS011;40603;48.774;8.916;2023-07-22T04:44:22;5.40;;;2.40;;
54705;SDS011;40603;48.774;8.916;2023-07-22T04:46:48;7.05;;;2.30;;
54705;SDS011;40603;48.774;8.916;2023-07-22T04:49:14;4.85;;;2.55;;
54705;SDS011;40603;48.774;8.916;2023-07-22T04:51:42;3.90;;;2.20;;
54705;SDS011;40603;48.774;8.916;2023-07-22T04:54:09;3.55;;;1.92;;
54705;SDS011;40603;48.774;8.916;2023-07-22T04:56:34;3.33;;;2.42;;
54705;SDS011;40603;48.774;8.916;2023-07-22T04:58:59;5.82;;;2.80;;
54705;SDS011;40603;48.774;8.916;2023-07-22T05:01:25;6.32;;;2.60;;
54705;SDS011;40603;48.774;8.916;2023-07-22T05:03:50;5.30;;;2.30;;
54705;SDS011;40603;48.774;8.916;2023-07-22T05:06:20;3.08;;;2.25;;
54705;SDS011;40603;48.774;8.916;2023-07-22T05:08:45;4.57;;;2.50;;
54705;SDS011;40603;48.774;8.916;2023-07-22T05:11:10;10.00;;;2.45;;
54705;SDS011;40603;48.774;8.916;2023-07-22T05:13:35;3.55;;;2.42;;
54705;SDS011;40603;48.774;8.916;2023-07-22T05:16:01;5.88;;;2.80;;
54705;SDS011;40603;48.774;8.916;2023-07-22T05:18:26;4.32;;;2.70;;
54705;SDS011;40603;48.774;8.916;2023-07-22T05:20:51;4.25;;;2.40;;
54705;SDS011;40603;48.774;8.916;2023-07-22T05:23:17;4.65;;;2.50;;
54705;SDS011;40603;48.774;8.916;2023-07-22T05:25:42;4.82;;;2.60;;
54705;SDS011;40603;48.774;8.916;2023-07-22T05:28:07;4.07;;;2.10;;
54705;SDS011;40603;48.774;8.916;2023-07-22T05:30:32;4.35;;;2.35;;
54705;SDS011;40603;48.774;8.916;2023-07-22T05:32:58;4.55;;;2.40;;
54705;SDS011;40603;48.774;8.916;2023-07-22T05:35:23;4.38;;;2.20;;
54705;SDS011;40603;48.774;8.916;2023-07-22T05:37:48;4.20;;;2.60;;
54705;SDS011;40603;48.774;8.916;2023-07-22T05:40:14;2.97;;;2.05;;
54705;SDS011;40603;48.774;8.916;2023-07-22T05:42:39;2.70;;;2.17;;
54705;SDS011;40603;48.774;8.916;2023-07-22T05:45:06;6.32;;;3.30;;
54705;SDS011;40603;48.774;8.916;2023-07-22T05:47:32;3.15;;;2.38;;
54705;SDS011;40603;48.774;8.916;2023-07-22T05:49:57;4.35;;;2.28;;
54705;SDS011;40603;48.774;8.916;2023-07-22T05:52:22;4.03;;;3.13;;
54705;SDS011;40603;48.774;8.916;2023-07-22T05:54:48;4.80;;;2.28;;
54705;SDS011;40603;48.774;8.916;2023-07-22T05:57:13;2.60;;;1.75;;
54705;SDS011;40603;48.774;8.916;2023-07-22T05:59:39;4.00;;;1.98;;
54705;SDS011;40603;48.774;8.916;2023-07-22T06:02:05;6.05;;;2.38;;
54705;SDS011;40603;48.774;8.916;2023-07-22T06:04:31;5.30;;;1.85;;
54705;SDS011;40603;48.774;8.916;2023-07-22T06:06:56;6.15;;;2.25;;
54705;SDS011;40603;48.774;8.916;2023-07-22T06:09:22;6.72;;;2.33;;
54705;SDS011;40603;48.774;8.916;2023-07-22T06:11:48;4.60;;;2.13;;
54705;SDS011;40603;48.774;8.916;2023-07-22T06:14:13;4.03;;;2.25;;
54705;SDS011;40603;48.774;8.916;2023-07-22T06:16:38;5.55;;;2.00;;
54705;SDS011;40603;48.774;8.916;2023-07-22T06:19:04;4.20;;;2.22;;
54705;SDS011;40603;48.774;8.916;2023-07-22T06:21:29;4.40;;;2.15;;
54705;SDS011;40603;48.774;8.916;2023-07-22T06:23:54;4.18;;;2.20;;
54705;SDS011;40603;48.774;8.916;2023-07-22T06:26:20;2.92;;;2.00;;
54705;SDS011;40603;48.774;8.916;2023-07-22T06:28:45;5.88;;;2.10;;
54705;SDS011;40603;48.774;8.916;2023-07-22T06:31:10;3.03;;;1.90;;
54705;SDS011;40603;48.774;8.916;2023-07-22T06:33:35;2.38;;;1.83;;
54705;SDS011;40603;48.774;8.916;2023-07-22T06:36:01;5.55;;;2.50;;
54705;SDS011;40603;48.774;8.916;2023-07-22T06:38:26;6.80;;;2.22;;
54705;SDS011;40603;48.774;8.916;2023-07-22T06:40:52;5.47;;;2.15;;
54705;SDS011;40603;48.774;8.916;2023-07-22T06:43:18;2.05;;;1.88;;
54705;SDS011;40603;48.774;8.916;2023-07-22T06:45:43;2.75;;;1.80;;
54705;SDS011;40603;48.774;8.916;2023-07-22T06:48:09;2.50;;;1.95;;
54705;SDS011;40603;48.774;8.916;2023-07-22T06:50:34;4.15;;;1.92;;
54705;SDS011;40603;48.774;8.916;2023-07-22T06:52:59;8.48;;;2.00;;
54705;SDS011;40603;48.774;8.916;2023-07-22T06:55:24;2.25;;;1.77;;
54705;SDS011;40603;48.774;8.916;2023-07-22T06:57:50;2.88;;;1.80;;
54705;SDS011;40603;48.774;8.916;2023-07-22T07:00:15;3.33;;;2.05;;
54705;SDS011;40603;48.774;8.916;2023-07-22T07:02:41;3.42;;;1.95;;
54705;SDS011;40603;48.774;8.916;2023-07-22T07:05:06;2.78;;;1.70;;
54705;SDS011;40603;48.774;8.916;2023-07-22T07:07:31;3.03;;;1.63;;
54705;SDS011;40603;48.774;8.916;2023-07-22T07:09:57;6.50;;;1.75;;
54705;SDS011;40603;48.774;8.916;2023-07-22T07:12:23;3.42;;;1.65;;
54705;SDS011;40603;48.774;8.916;2023-07-22T07:14:50;3.95;;;1.67;;
54705;SDS011;40603;48.774;8.916;2023-07-22T07:17:15;4.10;;;1.70;;
54705;SDS011;40603;48.774;8.916;2023-07-22T07:19:40;3.92;;;1.65;;
54705;SDS011;40603;48.774;8.916;2023-07-22T07:22:06;3.17;;;1.60;;
54705;SDS011;40603;48.774;8.916;2023-07-22T07:24:31;4.32;;;1.92;;
54705;SDS011;40603;48.774;8.916;2023-07-22T07:26:56;6.13;;;1.73;;
54705;SDS011;40603;48.774;8.916;2023-07-22T07:29:21;2.33;;;1.70;;
54705;SDS011;40603;48.774;8.916;2023-07-22T07:31:47;3.33;;;1.65;;
54705;SDS011;40603;48.774;8.916;2023-07-22T07:34:12;6.45;;;1.90;;
54705;SDS011;40603;48.774;8.916;2023-07-22T07:36:37;2.17;;;1.58;;
54705;SDS011;40603;48.774;8.916;2023-07-22T07:39:03;2.28;;;1.23;;
54705;SDS011;40603;48.774;8.916;2023-07-22T07:41:28;2.25;;;1.77;;
54705;SDS011;40603;48.774;8.916;2023-07-22T07:43:54;3.17;;;1.60;;
54705;SDS011;40603;48.774;8.916;2023-07-22T07:48:54;1.67;;;1.30;;
54705;SDS011;40603;48.774;8.916;2023-07-22T07:51:23;5.03;;;1.80;;
54705;SDS011;40603;48.774;8.916;2023-07-22T07:53:49;3.50;;;1.25;;
54705;SDS011;40603;48.774;8.916;2023-07-22T07:56:16;1.88;;;1.30;;
54705;SDS011;40603;48.774;8.916;2023-07-22T07:58:42;2.78;;;1.60;;
54705;SDS011;40603;48.774;8.916;2023-07-22T08:01:07;5.28;;;1.40;;
54705;SDS011;40603;48.774;8.916;2023-07-22T08:03:33;2.95;;;1.30;;
54705;SDS011;40603;48.774;8.916;2023-07-22T08:06:00;1.80;;;1.10;;
54705;SDS011;40603;48.774;8.916;2023-07-22T08:08:38;10.07;;;1.85;;
54705;SDS011;40603;48.774;8.916;2023-07-22T08:11:13;4.38;;;1.40;;
54705;SDS011;40603;48.774;8.916;2023-07-22T08:13:43;3.08;;;1.20;;
54705;SDS011;40603;48.774;8.916;2023-07-22T08:16:10;3.30;;;1.42;;
54705;SDS011;40603;48.774;8.916;2023-07-22T08:18:37;3.97;;;1.52;;
54705;SDS011;40603;48.774;8.916;2023-07-22T08:21:04;9.07;;;1.80;;
54705;SDS011;40603;48.774;8.916;2023-07-22T08:23:34;2.17;;;1.05;;
54705;SDS011;40603;48.774;8.916;2023-07-22T08:26:06;4.83;;;1.33;;
54705;SDS011;40603;48.774;8.916;2023-07-22T08:28:32;4.43;;;1.50;;
54705;SDS011;40603;48.774;8.916;2023-07-22T08:30:58;1.50;;;1.23;;
54705;SDS011;40603;48.774;8.916;2023-07-22T08:33:25;3.17;;;1.20;;
54705;SDS011;40603;48.774;8.916;2023-07-22T08:35:51;1.75;;;1.20;;
54705;SDS011;40603;48.774;8.916;2023-07-22T08:38:16;2.03;;;1.20;;
54705;SDS011;40603;48.774;8.916;2023-07-22T08:40:42;1.95;;;1.20;;
54705;SDS011;40603;48.774;8.916;2023-07-22T08:43:08;5.57;;;1.40;;
54705;SDS011;40603;48.774;8.916;2023-07-22T08:45:35;1.30;;;1.20;;
54705;SDS011;40603;48.774;8.916;2023-07-22T08:48:08;1.70;;;1.60;;
54705;SDS011;40603;48.774;8.916;2023-07-22T08:50:49;2.22;;;1.20;;
54705;SDS011;40603;48.774;8.916;2023-07-22T08:53:17;1.75;;;1.30;;
54705;SDS011;40603;48.774;8.916;2023-07-22T08:55:44;2.67;;;1.30;;
54705;SDS011;40603;48.774;8.916;2023-07-22T08:58:09;2.03;;;1.27;;
54705;SDS011;40603;48.774;8.916;2023-07-22T09:00:36;2.88;;;1.50;;
54705;SDS011;40603;48.774;8.916;2023-07-22T09:03:01;2.28;;;1.40;;
54705;SDS011;40603;48.774;8.916;2023-07-22T09:05:27;1.33;;;1.23;;
54705;SDS011;40603;48.774;8.916;2023-07-22T09:07:52;1.48;;;1.13;;
54705;SDS011;40603;48.774;8.916;2023-07-22T09:10:18;2.10;;;1.17;;
54705;SDS011;40603;48.774;8.916;2023-07-22T09:12:44;2.00;;;1.30;;
54705;SDS011;40603;48.774;8.916;2023-07-22T09:15:10;2.53;;;1.10;;
54705;SDS011;40603;48.774;8.916;2023-07-22T09:17:37;1.30;;;1.00;;
54705;SDS011;40603;48.774;8.916;2023-07-22T09:20:03;4.18;;;1.30;;
54705;SDS011;40603;48.774;8.916;2023-07-22T09:22:29;2.63;;;1.13;;
54705;SDS011;40603;48.774;8.916;2023-07-22T09:25:04;2.13;;;1.08;;
54705;SDS011;40603;48.774;8.916;2023-07-22T09:27:39;1.40;;;1.20;;
54705;SDS011;40603;48.774;8.916;2023-07-22T09:30:19;2.42;;;1.35;;
54705;SDS011;40603;48.774;8.916;2023-07-22T09:32:55;1.75;;;1.30;;
54705;SDS011;40603;48.774;8.916;2023-07-22T09:35:22;3.45;;;1.35;;
54705;SDS011;40603;48.774;8.916;2023-07-22T09:37:49;1.55;;;1.20;;
54705;SDS011;40603;48.774;8.916;2023-07-22T09:40:18;1.75;;;1.17;;
54705;SDS011;40603;48.774;8.916;2023-07-22T09:42:51;1.75;;;1.15;;
54705;SDS011;40603;48.774;8.916;2023-07-22T09:45:29;2.40;;;1.48;;
54705;SDS011;40603;48.774;8.916;2023-07-22T09:48:10;1.48;;;1.08;;
54705;SDS011;40603;48.774;8.916;2023-07-22T09:50:35;1.58;;;1.20;;
54705;SDS011;40603;48.774;8.916;2023-07-22T09:53:01;1.25;;;1.10;;
54705;SDS011;40603;48.774;8.916;2023-07-22T09:55:29;3.83;;;1.52;;
54705;SDS011;40603;48.774;8.916;2023-07-22T09:57:59;1.48;;;1.20;;
54705;SDS011;40603;48.774;8.916;2023-07-22T10:00:28;1.08;;;0.98;;
54705;SDS011;40603;48.774;8.916;2023-07-22T10:03:00;1.90;;;1.17;;
54705;SDS011;40603;48.774;8.916;2023-07-22T10:05:27;5.25;;;1.50;;
54705;SDS011;40603;48.774;8.916;2023-07-22T10:07:57;2.28;;;1.10;;
54705;SDS011;40603;48.774;8.916;2023-07-22T10:10:24;1.00;;;0.90;;
54705;SDS011;40603;48.774;8.916;2023-07-22T10:12:51;2.28;;;1.27;;
54705;SDS011;40603;48.774;8.916;2023-07-22T10:15:18;2.42;;;1.23;;
54705;SDS011;40603;48.774;8.916;2023-07-22T10:17:43;1.75;;;1.20;;
54705;SDS011;40603;48.774;8.916;2023-07-22T10:20:09;1.25;;;1.10;;
54705;SDS011;40603;48.774;8.916;2023-07-22T10:22:40;4.00;;;1.35;;
54705;SDS011;40603;48.774;8.916;2023-07-22T10:25:10;1.60;;;1.20;;
54705;SDS011;40603;48.774;8.916;2023-07-22T10:27:42;1.17;;;1.08;;
54705;SDS011;40603;48.774;8.916;2023-07-22T10:30:09;1.77;;;1.00;;
54705;SDS011;40603;48.774;8.916;2023-07-22T10:32:36;2.67;;;1.30;;
54705;SDS011;40603;48.774;8.916;2023-07-22T10:35:03;2.13;;;1.30;;
54705;SDS011;40603;48.774;8.916;2023-07-22T10:37:32;2.50;;;1.30;;
54705;SDS011;40603;48.774;8.916;2023-07-22T10:40:44;4.53;;;1.60;;
54705;SDS011;40603;48.774;8.916;2023-07-22T10:42:53;1.35;;;1.20;;
54705;SDS011;40603;48.774;8.916;2023-07-22T10:45:23;2.15;;;1.40;;
54705;SDS011;40603;48.774;8.916;2023-07-22T10:47:59;1.20;;;1.10;;
54705;SDS011;40603;48.774;8.916;2023-07-22T10:50:37;2.10;;;1.42;;
54705;SDS011;40603;48.774;8.916;2023-07-22T10:53:08;1.70;;;1.33;;
54705;SDS011;40603;48.774;8.916;2023-07-22T10:56:01;1.75;;;1.30;;
54705;SDS011;40603;48.774;8.916;2023-07-22T11:06:30;2.55;;;1.50;;
54705;SDS011;40603;48.774;8.916;2023-07-22T11:08:56;2.20;;;1.33;;
54705;SDS011;40603;48.774;8.916;2023-07-22T11:11:21;1.67;;;1.45;;
54705;SDS011;40603;48.774;8.916;2023-07-22T11:13:47;4.85;;;1.38;;
54705;SDS011;40603;48.774;8.916;2023-07-22T11:16:16;1.45;;;1.20;;
54705;SDS011;40603;48.774;8.916;2023-07-22T11:18:43;1.60;;;1.27;;
54705;SDS011;40603;48.774;8.916;2023-07-22T11:21:12;2.13;;;1.50;;
54705;SDS011;40603;48.774;8.916;2023-07-22T11:23:37;3.03;;;1.30;;
54705;SDS011;40603;48.774;8.916;2023-07-22T11:26:03;1.80;;;1.50;;
54705;SDS011;40603;48.774;8.916;2023-07-22T11:28:28;1.92;;;1.50;;
54705;SDS011;40603;48.774;8.916;2023-07-22T11:30:54;2.20;;;1.40;;
54705;SDS011;40603;48.774;8.916;2023-07-22T11:33:20;2.22;;;1.50;;
54705;SDS011;40603;48.774;8.916;2023-07-22T11:35:45;2.28;;;1.50;;
54705;SDS011;40603;48.774;8.916;2023-07-22T11:38:13;1.63;;;1.15;;
54705;SDS011;40603;48.774;8.916;2023-07-22T11:40:39;1.80;;;1.23;;
54705;SDS011;40603;48.774;8.916;2023-07-22T11:43:04;2.63;;;1.42;;
54705;SDS011;40603;48.774;8.916;2023-07-22T11:45:30;1.90;;;1.50;;
54705;SDS011;40603;48.774;8.916;2023-07-22T11:47:58;1.50;;;1.40;;
54705;SDS011;40603;48.774;8.916;2023-07-22T11:50:31;4.03;;;1.33;;
54705;SDS011;40603;48.774;8.916;2023-07-22T11:52:57;5.35;;;1.80;;
54705;SDS011;40603;48.774;8.916;2023-07-22T11:55:23;2.63;;;1.50;;
54705;SDS011;40603;48.774;8.916;2023-07-22T11:57:52;3.05;;;1.98;;
54705;SDS011;40603;48.774;8.916;2023-07-22T12:00:20;2.13;;;1.38;;
54705;SDS011;40603;48.774;8.916;2023-07-22T12:02:46;4.13;;;1.58;;
54705;SDS011;40603;48.774;8.916;2023-07-22T12:05:19;2.28;;;1.90;;
54705;SDS011;40603;48.774;8.916;2023-07-22T12:07:46;3.90;;;1.75;;
54705;SDS011;40603;48.774;8.916;2023-07-22T12:10:11;2.45;;;1.55;;
54705;SDS011;40603;48.774;8.916;2023-07-22T12:12:39;2.90;;;1.75;;
54705;SDS011;40603;48.774;8.916;2023-07-22T12:15:13;3.00;;;1.85;;
54705;SDS011;40603;48.774;8.916;2023-07-22T12:17:46;2.78;;;1.90;;
54705;SDS011;40603;48.774;8.916;2023-07-22T12:20:16;3.42;;;1.95;;
54705;SDS011;40603;48.774;8.916;2023-07-22T12:22:42;2.15;;;1.60;;
54705;SDS011;40603;48.774;8.916;2023-07-22T12:25:08;2.58;;;1.65;;
54705;SDS011;40603;48.774;8.916;2023-07-22T12:27:33;3.45;;;1.85;;
54705;SDS011;40603;48.774;8.916;2023-07-22T12:29:59;2.17;;;1.70;;
54705;SDS011;40603;48.774;8.916;2023-07-22T12:32:24;2.15;;;1.77;;
54705;SDS011;40603;48.774;8.916;2023-07-22T12:34:49;4.50;;;1.90;;
54705;SDS011;40603;48.774;8.916;2023-07-22T12:37:14;2.50;;;1.98;;
54705;SDS011;40603;48.774;8.916;2023-07-22T12:39:40;1.98;;;1.75;;
54705;SDS011;40603;48.774;8.916;2023-07-22T12:42:08;3.80;;;1.80;;
54705;SDS011;40603;48.774;8.916;2023-07-22T12:44:34;3.30;;;2.00;;
54705;SDS011;40603;48.774;8.916;2023-07-22T12:46:59;3.80;;;1.77;;
54705;SDS011;40603;48.774;8.916;2023-07-22T12:49:25;5.57;;;1.90;;
54705;SDS011;40603;48.774;8.916;2023-07-22T12:51:50;5.60;;;1.88;;
54705;SDS011;40603;48.774;8.916;2023-07-22T12:54:16;3.63;;;2.17;;
54705;SDS011;40603;48.774;8.916;2023-07-22T12:56:41;2.78;;;1.88;;
54705;SDS011;40603;48.774;8.916;2023-07-22T12:59:08;3.30;;;2.08;;
54705;SDS011;40603;48.774;8.916;2023-07-22T13:01:36;3.22;;;1.92;;
54705;SDS011;40603;48.774;8.916;2023-07-22T13:04:04;3.38;;;2.50;;
54705;SDS011;40603;48.774;8.916;2023-07-22T13:06:29;4.47;;;2.08;;
54705;SDS011;40603;48.774;8.916;2023-07-22T13:08:55;2.78;;;2.10;;
54705;SDS011;40603;48.774;8.916;2023-07-22T13:11:20;3.47;;;2.67;;
54705;SDS011;40603;48.774;8.916;2023-07-22T13:13:46;2.38;;;1.90;;
54705;SDS011;40603;48.774;8.916;2023-07-22T13:16:11;3.20;;;2.30;;
54705;SDS011;40603;48.774;8.916;2023-07-22T13:18:39;5.53;;;3.30;;
54705;SDS011;40603;48.774;8.916;2023-07-22T13:21:05;13.38;;;6.20;;
54705;SDS011;40603;48.774;8.916;2023-07-22T13:23:30;4.43;;;2.17;;
54705;SDS011;40603;48.774;8.916;2023-07-22T13:25:55;3.03;;;2.10;;
54705;SDS011;40603;48.774;8.916;2023-07-22T13:28:21;2.60;;;1.88;;
54705;SDS011;40603;48.774;8.916;2023-07-22T13:30:46;5.78;;;2.00;;
54705;SDS011;40603;48.774;8.916;2023-07-22T13:33:11;4.18;;;2.03;;
54705;SDS011;40603;48.774;8.916;2023-07-22T13:35:37;6.82;;;3.45;;
54705;SDS011;40603;48.774;8.916;2023-07-22T13:38:02;9.45;;;6.20;;
54705;SDS011;40603;48.774;8.916;2023-07-22T13:40:27;4.47;;;2.65;;
54705;SDS011;40603;48.774;8.916;2023-07-22T13:42:52;2.88;;;2.08;;
54705;SDS011;40603;48.774;8.916;2023-07-22T13:45:18;2.60;;;1.85;;
54705;SDS011;40603;48.774;8.916;2023-07-22T13:47:43;2.15;;;1.90;;
54705;SDS011;40603;48.774;8.916;2023-07-22T13:50:09;3.20;;;1.80;;
54705;SDS011;40603;48.774;8.916;2023-07-22T13:52:34;3.85;;;1.48;;
54705;SDS011;40603;48.774;8.916;2023-07-22T13:54:59;2.85;;;2.00;;
54705;SDS011;40603;48.774;8.916;2023-07-22T13:57:25;4.03;;;1.90;;
54705;SDS011;40603;48.774;8.916;2023-07-22T13:59:50;2.10;;;1.70;;
54705;SDS011;40603;48.774;8.916;2023-07-22T14:02:15;2.58;;;1.98;;
54705;SDS011;40603;48.774;8.916;2023-07-22T14:04:41;3.17;;;2.03;;
54705;SDS011;40603;48.774;8.916;2023-07-22T14:07:06;4.78;;;2.10;;
54705;SDS011;40603;48.774;8.916;2023-07-22T14:09:31;4.13;;;2.72;;
54705;SDS011;40603;48.774;8.916;2023-07-22T14:11:57;2.53;;;2.25;;
54705;SDS011;40603;48.774;8.916;2023-07-22T14:14:22;3.63;;;2.47;;
54705;SDS011;40603;48.774;8.916;2023-07-22T14:16:53;3.38;;;2.35;;
54705;SDS011;40603;48.774;8.916;2023-07-22T14:19:19;4.15;;;2.70;;
54705;SDS011;40603;48.774;8.916;2023-07-22T14:21:44;2.83;;;2.30;;
54705;SDS011;40603;48.774;8.916;2023-07-22T14:24:10;3.63;;;2.45;;
54705;SDS011;40603;48.774;8.916;2023-07-22T14:26:35;3.72;;;2.40;;
54705;SDS011;40603;48.774;8.916;2023-07-22T14:29:00;3.40;;;2.50;;
54705;SDS011;40603;48.774;8.916;2023-07-22T14:31:26;2.92;;;2.38;;
54705;SDS011;40603;48.774;8.916;2023-07-22T14:33:51;5.78;;;2.58;;
54705;SDS011;40603;48.774;8.916;2023-07-22T14:36:16;3.15;;;2.30;;
54705;SDS011;40603;48.774;8.916;2023-07-22T14:38:43;2.88;;;2.50;;
54705;SDS011;40603;48.774;8.916;2023-07-22T14:41:08;4.72;;;2.70;;
54705;SDS011;40603;48.774;8.916;2023-07-22T14:43:36;4.07;;;3.00;;
54705;SDS011;40603;48.774;8.916;2023-07-22T14:46:01;3.30;;;2.63;;
54705;SDS011;40603;48.774;8.916;2023-07-22T14:48:26;4.15;;;2.35;;
54705;SDS011;40603;48.774;8.916;2023-07-22T14:50:52;4.80;;;2.78;;
54705;SDS011;40603;48.774;8.916;2023-07-22T14:53:17;5.35;;;2.83;;
54705;SDS011;40603;48.774;8.916;2023-07-22T14:55:44;4.35;;;2.45;;
54705;SDS011;40603;48.774;8.916;2023-07-22T14:58:09;6.20;;;2.72;;